sensor_id;sensor_type;location;lat;lon;timestamp;P1;P2;P0
44871;PMS7003;30602;51.060;17.226;2022-10-16T00:01:25;16;13;10
44871;PMS7003;30602;51.060;17.226;2022-10-16T00:04:47;12;12;9
44871;PMS7003;30602;51.060;17.226;2022-10-16T00:08:21;19;18;12
44871;PMS7003;30602;51.060;17.226;2022-10-16T00:12:23;19;15;12
44871;PMS7003;30602;51.060;17.226;2022-10-16T00:15:56;17;16;12
44871;PMS7003;30602;51.060;17.226;2022-10-16T00:20:07;18;16;12
44871;PMS7003;30602;51.060;17.226;2022-10-16T00:24:00;17;14;11
44871;PMS7003;30602;51.060;17.226;2022-10-16T00:27:19;16;14;11
44871;PMS7003;30602;51.060;17.226;2022-10-16T00:30:46;18;16;12
44871;PMS7003;30602;51.060;17.226;2022-10-16T00:34:33;17;16;13
44871;PMS7003;30602;51.060;17.226;2022-10-16T00:38:23;23;21;16
44871;PMS7003;30602;51.060;17.226;2022-10-16T00:41:42;28;27;20
44871;PMS7003;30602;51.060;17.226;2022-10-16T00:45:02;18;14;10
44871;PMS7003;30602;51.060;17.226;2022-10-16T00:48:12;14;12;9
44871;PMS7003;30602;51.060;17.226;2022-10-16T00:51:47;16;11;9
44871;PMS7003;30602;51.060;17.226;2022-10-16T00:55:02;15;12;10
44871;PMS7003;30602;51.060;17.226;2022-10-16T00:58:43;17;16;13
44871;PMS7003;30602;51.060;17.226;2022-10-16T01:02:06;15;13;11
44871;PMS7003;30602;51.060;17.226;2022-10-16T01:05:16;19;17;12
44871;PMS7003;30602;51.060;17.226;2022-10-16T01:08:30;19;17;13
44871;PMS7003;30602;51.060;17.226;2022-10-16T01:19:14;14;11;9
44871;PMS7003;30602;51.060;17.226;2022-10-16T01:23:33;14;13;10
44871;PMS7003;30602;51.060;17.226;2022-10-16T01:30:40;13;12;10
44871;PMS7003;30602;51.060;17.226;2022-10-16T01:38:23;18;13;9
44871;PMS7003;30602;51.060;17.226;2022-10-16T01:42:01;16;14;10
44871;PMS7003;30602;51.060;17.226;2022-10-16T01:45:39;17;15;11
44871;PMS7003;30602;51.060;17.226;2022-10-16T01:49:38;13;11;9
44871;PMS7003;30602;51.060;17.226;2022-10-16T01:53:11;12;11;9
44871;PMS7003;30602;51.060;17.226;2022-10-16T01:56:41;15;12;11
44871;PMS7003;30602;51.060;17.226;2022-10-16T01:59:54;12;11;10
44871;PMS7003;30602;51.060;17.226;2022-10-16T02:03:32;14;12;9
44871;PMS7003;30602;51.060;17.226;2022-10-16T02:07:49;15;14;10
44871;PMS7003;30602;51.060;17.226;2022-10-16T02:11:05;14;13;11
44871;PMS7003;30602;51.060;17.226;2022-10-16T02:14:59;15;13;10
44871;PMS7003;30602;51.060;17.226;2022-10-16T02:18:20;17;13;10
44871;PMS7003;30602;51.060;17.226;2022-10-16T02:26:35;21;18;11
44871;PMS7003;30602;51.060;17.226;2022-10-16T02:30:15;15;13;10
44871;PMS7003;30602;51.060;17.226;2022-10-16T02:33:33;14;13;9
44871;PMS7003;30602;51.060;17.226;2022-10-16T02:37:10;17;13;11
44871;PMS7003;30602;51.060;17.226;2022-10-16T02:40:36;16;14;10
44871;PMS7003;30602;51.060;17.226;2022-10-16T02:44:12;18;13;11
44871;PMS7003;30602;51.060;17.226;2022-10-16T02:47:22;15;14;9
44871;PMS7003;30602;51.060;17.226;2022-10-16T02:50:33;15;14;11
44871;PMS7003;30602;51.060;17.226;2022-10-16T02:53:55;12;11;9
44871;PMS7003;30602;51.060;17.226;2022-10-16T02:57:23;11;11;9
44871;PMS7003;30602;51.060;17.226;2022-10-16T03:00:54;15;14;10
44871;PMS7003;30602;51.060;17.226;2022-10-16T03:04:38;15;14;11
44871;PMS7003;30602;51.060;17.226;2022-10-16T03:08:31;18;15;11
44871;PMS7003;30602;51.060;17.226;2022-10-16T03:12:02;18;17;13
44871;PMS7003;30602;51.060;17.226;2022-10-16T03:15:10;12;11;9
44871;PMS7003;30602;51.060;17.226;2022-10-16T03:18:22;14;14;10
44871;PMS7003;30602;51.060;17.226;2022-10-16T03:21:38;14;12;9
44871;PMS7003;30602;51.060;17.226;2022-10-16T03:24:47;16;14;11
44871;PMS7003;30602;51.060;17.226;2022-10-16T03:28:12;15;14;11
44871;PMS7003;30602;51.060;17.226;2022-10-16T03:31:55;18;17;12
44871;PMS7003;30602;51.060;17.226;2022-10-16T03:35:07;15;14;11
44871;PMS7003;30602;51.060;17.226;2022-10-16T03:38:45;18;17;13
44871;PMS7003;30602;51.060;17.226;2022-10-16T03:41:55;18;18;15
44871;PMS7003;30602;51.060;17.226;2022-10-16T03:45:08;36;32;25
44871;PMS7003;30602;51.060;17.226;2022-10-16T03:48:23;24;21;18
44871;PMS7003;30602;51.060;17.226;2022-10-16T03:55:25;23;19;14
44871;PMS7003;30602;51.060;17.226;2022-10-16T03:58:35;21;19;13
44871;PMS7003;30602;51.060;17.226;2022-10-16T04:02:09;23;20;15
44871;PMS7003;30602;51.060;17.226;2022-10-16T04:05:16;16;13;12
44871;PMS7003;30602;51.060;17.226;2022-10-16T04:08:47;19;16;13
44871;PMS7003;30602;51.060;17.226;2022-10-16T04:12:21;18;16;12
44871;PMS7003;30602;51.060;17.226;2022-10-16T04:15:44;18;16;10
44871;PMS7003;30602;51.060;17.226;2022-10-16T04:19:00;17;15;12
44871;PMS7003;30602;51.060;17.226;2022-10-16T04:22:31;18;16;11
44871;PMS7003;30602;51.060;17.226;2022-10-16T04:26:09;16;15;12
44871;PMS7003;30602;51.060;17.226;2022-10-16T04:29:30;19;15;12
44871;PMS7003;30602;51.060;17.226;2022-10-16T04:33:13;16;12;10
44871;PMS7003;30602;51.060;17.226;2022-10-16T04:36:34;16;14;11
44871;PMS7003;30602;51.060;17.226;2022-10-16T04:40:13;18;17;13
44871;PMS7003;30602;51.060;17.226;2022-10-16T04:43:24;17;16;11
44871;PMS7003;30602;51.060;17.226;2022-10-16T04:46:32;18;15;10
44871;PMS7003;30602;51.060;17.226;2022-10-16T04:50:03;22;16;12
44871;PMS7003;30602;51.060;17.226;2022-10-16T04:53:31;18;18;12
44871;PMS7003;30602;51.060;17.226;2022-10-16T04:57:07;23;18;14
44871;PMS7003;30602;51.060;17.226;2022-10-16T05:00:29;15;13;9
44871;PMS7003;30602;51.060;17.226;2022-10-16T05:03:55;22;18;11
44871;PMS7003;30602;51.060;17.226;2022-10-16T05:07:22;17;16;11
44871;PMS7003;30602;51.060;17.226;2022-10-16T05:10:43;18;15;11
44871;PMS7003;30602;51.060;17.226;2022-10-16T05:14:12;15;14;10
44871;PMS7003;30602;51.060;17.226;2022-10-16T05:17:24;19;18;13
44871;PMS7003;30602;51.060;17.226;2022-10-16T05:20:54;19;17;13
44871;PMS7003;30602;51.060;17.226;2022-10-16T05:24:33;17;16;11
44871;PMS7003;30602;51.060;17.226;2022-10-16T05:28:16;18;16;12
44871;PMS7003;30602;51.060;17.226;2022-10-16T05:31:51;22;18;12
44871;PMS7003;30602;51.060;17.226;2022-10-16T05:35:01;24;19;13
44871;PMS7003;30602;51.060;17.226;2022-10-16T05:38:37;24;21;14
44871;PMS7003;30602;51.060;17.226;2022-10-16T05:41:49;17;16;10
44871;PMS7003;30602;51.060;17.226;2022-10-16T05:45:20;18;17;12
44871;PMS7003;30602;51.060;17.226;2022-10-16T05:48:32;16;15;10
44871;PMS7003;30602;51.060;17.226;2022-10-16T05:52:36;18;15;11
44871;PMS7003;30602;51.060;17.226;2022-10-16T05:55:51;17;16;12
44871;PMS7003;30602;51.060;17.226;2022-10-16T05:59:02;19;16;11
44871;PMS7003;30602;51.060;17.226;2022-10-16T06:02:35;18;17;12
44871;PMS7003;30602;51.060;17.226;2022-10-16T06:05:47;15;14;10
44871;PMS7003;30602;51.060;17.226;2022-10-16T06:08:58;19;18;12
44871;PMS7003;30602;51.060;17.226;2022-10-16T06:12:06;17;15;11
44871;PMS7003;30602;51.060;17.226;2022-10-16T06:15:36;15;14;11
44871;PMS7003;30602;51.060;17.226;2022-10-16T06:19:32;15;14;11
44871;PMS7003;30602;51.060;17.226;2022-10-16T06:22:43;20;16;11
44871;PMS7003;30602;51.060;17.226;2022-10-16T06:26:24;17;16;12
44871;PMS7003;30602;51.060;17.226;2022-10-16T06:29:36;14;14;10
44871;PMS7003;30602;51.060;17.226;2022-10-16T06:32:51;15;12;9
44871;PMS7003;30602;51.060;17.226;2022-10-16T06:39:45;15;13;11
44871;PMS7003;30602;51.060;17.226;2022-10-16T06:43:41;18;13;10
44871;PMS7003;30602;51.060;17.226;2022-10-16T06:46:59;13;12;9
44871;PMS7003;30602;51.060;17.226;2022-10-16T06:50:10;11;11;8
44871;PMS7003;30602;51.060;17.226;2022-10-16T06:53:18;17;12;9
44871;PMS7003;30602;51.060;17.226;2022-10-16T06:56:30;15;14;10
44871;PMS7003;30602;51.060;17.226;2022-10-16T06:59:54;11;11;9
44871;PMS7003;30602;51.060;17.226;2022-10-16T07:03:15;14;13;10
44871;PMS7003;30602;51.060;17.226;2022-10-16T07:06:25;14;12;9
44871;PMS7003;30602;51.060;17.226;2022-10-16T07:09:46;13;12;9
44871;PMS7003;30602;51.060;17.226;2022-10-16T07:13:27;14;11;9
44871;PMS7003;30602;51.060;17.226;2022-10-16T07:16:57;13;12;10
44871;PMS7003;30602;51.060;17.226;2022-10-16T07:20:06;13;12;8
44871;PMS7003;30602;51.060;17.226;2022-10-16T07:23:36;13;13;9
44871;PMS7003;30602;51.060;17.226;2022-10-16T07:27:20;14;11;9
44871;PMS7003;30602;51.060;17.226;2022-10-16T07:30:34;13;10;8
44871;PMS7003;30602;51.060;17.226;2022-10-16T07:34:05;16;12;10
44871;PMS7003;30602;51.060;17.226;2022-10-16T07:37:27;12;11;9
44871;PMS7003;30602;51.060;17.226;2022-10-16T07:44:54;14;13;10
44871;PMS7003;30602;51.060;17.226;2022-10-16T07:48:06;12;11;9
44871;PMS7003;30602;51.060;17.226;2022-10-16T07:51:17;12;12;9
44871;PMS7003;30602;51.060;17.226;2022-10-16T07:54:49;15;13;9
44871;PMS7003;30602;51.060;17.226;2022-10-16T07:58:19;12;11;9
44871;PMS7003;30602;51.060;17.226;2022-10-16T08:01:54;13;11;9
44871;PMS7003;30602;51.060;17.226;2022-10-16T08:05:04;13;12;9
44871;PMS7003;30602;51.060;17.226;2022-10-16T08:08:14;12;11;7
44871;PMS7003;30602;51.060;17.226;2022-10-16T08:11:43;12;9;7
44871;PMS7003;30602;51.060;17.226;2022-10-16T08:15:03;11;8;7
44871;PMS7003;30602;51.060;17.226;2022-10-16T08:18:44;7;7;6
44871;PMS7003;30602;51.060;17.226;2022-10-16T08:22:42;11;9;7
44871;PMS7003;30602;51.060;17.226;2022-10-16T08:26:11;9;9;7
44871;PMS7003;30602;51.060;17.226;2022-10-16T08:29:23;6;4;4
44871;PMS7003;30602;51.060;17.226;2022-10-16T08:32:53;8;7;5
44871;PMS7003;30602;51.060;17.226;2022-10-16T08:36:24;8;8;7
44871;PMS7003;30602;51.060;17.226;2022-10-16T08:40:31;11;9;8
44871;PMS7003;30602;51.060;17.226;2022-10-16T08:50:52;9;7;6
44871;PMS7003;30602;51.060;17.226;2022-10-16T08:54:15;12;10;9
44871;PMS7003;30602;51.060;17.226;2022-10-16T08:58:00;13;11;7
44871;PMS7003;30602;51.060;17.226;2022-10-16T09:02:02;11;10;7
44871;PMS7003;30602;51.060;17.226;2022-10-16T09:08:51;13;10;8
44871;PMS7003;30602;51.060;17.226;2022-10-16T09:12:13;12;11;9
44871;PMS7003;30602;51.060;17.226;2022-10-16T09:15:32;12;10;9
44871;PMS7003;30602;51.060;17.226;2022-10-16T09:18:52;11;10;8
44871;PMS7003;30602;51.060;17.226;2022-10-16T09:22:29;10;10;8
44871;PMS7003;30602;51.060;17.226;2022-10-16T09:25:54;9;9;7
44871;PMS7003;30602;51.060;17.226;2022-10-16T09:29:13;12;10;8
44871;PMS7003;30602;51.060;17.226;2022-10-16T09:32:43;13;12;9
44871;PMS7003;30602;51.060;17.226;2022-10-16T09:36:48;10;8;7
44871;PMS7003;30602;51.060;17.226;2022-10-16T09:40:05;12;9;8
44871;PMS7003;30602;51.060;17.226;2022-10-16T09:46:40;13;11;9
44871;PMS7003;30602;51.060;17.226;2022-10-16T09:49:57;12;11;9
44871;PMS7003;30602;51.060;17.226;2022-10-16T09:57:49;11;10;7
44871;PMS7003;30602;51.060;17.226;2022-10-16T10:01:02;13;11;9
44871;PMS7003;30602;51.060;17.226;2022-10-16T10:07:55;11;8;7
44871;PMS7003;30602;51.060;17.226;2022-10-16T10:18:38;10;8;6
44871;PMS7003;30602;51.060;17.226;2022-10-16T10:26:00;10;8;6
44871;PMS7003;30602;51.060;17.226;2022-10-16T10:33:14;9;8;6
44871;PMS7003;30602;51.060;17.226;2022-10-16T10:40:11;9;9;8
44871;PMS7003;30602;51.060;17.226;2022-10-16T10:51:57;8;7;6
44871;PMS7003;30602;51.060;17.226;2022-10-16T10:55:36;9;8;5
44871;PMS7003;30602;51.060;17.226;2022-10-16T10:59:08;5;5;4
44871;PMS7003;30602;51.060;17.226;2022-10-16T11:09:45;3;2;2
44871;PMS7003;30602;51.060;17.226;2022-10-16T11:16:39;5;4;4
44871;PMS7003;30602;51.060;17.226;2022-10-16T11:20:42;4;3;3
44871;PMS7003;30602;51.060;17.226;2022-10-16T11:28:39;7;7;6
44871;PMS7003;30602;51.060;17.226;2022-10-16T11:32:01;11;8;7
44871;PMS7003;30602;51.060;17.226;2022-10-16T11:35:23;8;8;6
44871;PMS7003;30602;51.060;17.226;2022-10-16T11:42:39;11;8;7
44871;PMS7003;30602;51.060;17.226;2022-10-16T11:46:27;7;7;7
44871;PMS7003;30602;51.060;17.226;2022-10-16T11:49:58;10;10;8
44871;PMS7003;30602;51.060;17.226;2022-10-16T11:53:55;8;8;6
44871;PMS7003;30602;51.060;17.226;2022-10-16T12:01:13;9;8;7
44871;PMS7003;30602;51.060;17.226;2022-10-16T12:04:49;12;10;7
44871;PMS7003;30602;51.060;17.226;2022-10-16T12:08:39;13;10;9
44871;PMS7003;30602;51.060;17.226;2022-10-16T12:19:45;10;9;8
44871;PMS7003;30602;51.060;17.226;2022-10-16T12:23:20;12;11;9
44871;PMS7003;30602;51.060;17.226;2022-10-16T12:30:35;12;12;9
44871;PMS7003;30602;51.060;17.226;2022-10-16T12:34:05;10;8;8
44871;PMS7003;30602;51.060;17.226;2022-10-16T12:37:13;10;10;9
44871;PMS7003;30602;51.060;17.226;2022-10-16T12:40:30;15;12;9
44871;PMS7003;30602;51.060;17.226;2022-10-16T12:43:42;11;10;8
44871;PMS7003;30602;51.060;17.226;2022-10-16T12:47:18;11;11;8
44871;PMS7003;30602;51.060;17.226;2022-10-16T12:50:42;15;14;10
44871;PMS7003;30602;51.060;17.226;2022-10-16T13:16:58;17;15;11
44871;PMS7003;30602;51.060;17.226;2022-10-16T13:28:34;18;16;14
44871;PMS7003;30602;51.060;17.226;2022-10-16T13:31:48;18;17;12
44871;PMS7003;30602;51.060;17.226;2022-10-16T13:35:23;21;17;13
44871;PMS7003;30602;51.060;17.226;2022-10-16T13:42:44;14;12;10
44871;PMS7003;30602;51.060;17.226;2022-10-16T13:46:29;17;16;11
44871;PMS7003;30602;51.060;17.226;2022-10-16T13:50:16;18;16;11
44871;PMS7003;30602;51.060;17.226;2022-10-16T13:53:32;21;16;12
44871;PMS7003;30602;51.060;17.226;2022-10-16T13:57:15;15;15;10
44871;PMS7003;30602;51.060;17.226;2022-10-16T14:00:57;14;13;10
44871;PMS7003;30602;51.060;17.226;2022-10-16T14:04:15;14;12;10
44871;PMS7003;30602;51.060;17.226;2022-10-16T14:07:47;16;13;11
44871;PMS7003;30602;51.060;17.226;2022-10-16T14:11:24;16;13;10
44871;PMS7003;30602;51.060;17.226;2022-10-16T14:14:35;11;11;9
44871;PMS7003;30602;51.060;17.226;2022-10-16T14:18:01;14;12;9
44871;PMS7003;30602;51.060;17.226;2022-10-16T14:21:32;17;14;10
44871;PMS7003;30602;51.060;17.226;2022-10-16T14:24:56;12;12;9
44871;PMS7003;30602;51.060;17.226;2022-10-16T14:31:41;14;14;10
44871;PMS7003;30602;51.060;17.226;2022-10-16T14:34:57;19;15;9
44871;PMS7003;30602;51.060;17.226;2022-10-16T14:38:25;11;11;9
44871;PMS7003;30602;51.060;17.226;2022-10-16T14:41:56;11;10;8
44871;PMS7003;30602;51.060;17.226;2022-10-16T14:45:43;16;16;11
44871;PMS7003;30602;51.060;17.226;2022-10-16T14:49:25;14;14;11
44871;PMS7003;30602;51.060;17.226;2022-10-16T14:52:53;15;14;11
44871;PMS7003;30602;51.060;17.226;2022-10-16T14:56:12;15;14;10
44871;PMS7003;30602;51.060;17.226;2022-10-16T15:03:12;15;14;10
44871;PMS7003;30602;51.060;17.226;2022-10-16T15:06:30;16;15;13
44871;PMS7003;30602;51.060;17.226;2022-10-16T15:10:01;16;15;11
44871;PMS7003;30602;51.060;17.226;2022-10-16T15:13:36;17;15;12
44871;PMS7003;30602;51.060;17.226;2022-10-16T15:17:24;20;19;13
44871;PMS7003;30602;51.060;17.226;2022-10-16T15:20:54;17;14;11
44871;PMS7003;30602;51.060;17.226;2022-10-16T15:24:13;14;12;6
44871;PMS7003;30602;51.060;17.226;2022-10-16T15:28:13;20;18;12
44871;PMS7003;30602;51.060;17.226;2022-10-16T15:32:08;17;16;13
44871;PMS7003;30602;51.060;17.226;2022-10-16T15:35:38;18;18;12
44871;PMS7003;30602;51.060;17.226;2022-10-16T15:38:51;18;17;13
44871;PMS7003;30602;51.060;17.226;2022-10-16T15:42:19;20;18;13
44871;PMS7003;30602;51.060;17.226;2022-10-16T15:45:28;17;17;14
44871;PMS7003;30602;51.060;17.226;2022-10-16T15:49:22;19;16;12
44871;PMS7003;30602;51.060;17.226;2022-10-16T15:52:44;19;15;12
44871;PMS7003;30602;51.060;17.226;2022-10-16T15:56:51;22;20;14
44871;PMS7003;30602;51.060;17.226;2022-10-16T16:00:05;18;17;13
44871;PMS7003;30602;51.060;17.226;2022-10-16T16:03:20;23;19;15
44871;PMS7003;30602;51.060;17.226;2022-10-16T16:07:04;25;23;17
44871;PMS7003;30602;51.060;17.226;2022-10-16T16:10:18;23;20;14
44871;PMS7003;30602;51.060;17.226;2022-10-16T16:14:13;25;22;14
44871;PMS7003;30602;51.060;17.226;2022-10-16T16:17:49;27;23;15
44871;PMS7003;30602;51.060;17.226;2022-10-16T16:21:49;24;20;16
44871;PMS7003;30602;51.060;17.226;2022-10-16T16:25:03;31;28;18
44871;PMS7003;30602;51.060;17.226;2022-10-16T16:28:18;35;29;19
44871;PMS7003;30602;51.060;17.226;2022-10-16T16:31:32;26;25;17
44871;PMS7003;30602;51.060;17.226;2022-10-16T16:34:44;23;22;17
44871;PMS7003;30602;51.060;17.226;2022-10-16T16:37:54;27;24;17
44871;PMS7003;30602;51.060;17.226;2022-10-16T16:41:22;27;24;18
44871;PMS7003;30602;51.060;17.226;2022-10-16T16:44:34;24;23;17
44871;PMS7003;30602;51.060;17.226;2022-10-16T16:48:04;32;27;21
44871;PMS7003;30602;51.060;17.226;2022-10-16T16:52:21;31;26;21
44871;PMS7003;30602;51.060;17.226;2022-10-16T16:55:35;28;25;18
44871;PMS7003;30602;51.060;17.226;2022-10-16T16:59:03;28;27;17
44871;PMS7003;30602;51.060;17.226;2022-10-16T17:02:47;24;22;15
44871;PMS7003;30602;51.060;17.226;2022-10-16T17:06:23;25;22;14
44871;PMS7003;30602;51.060;17.226;2022-10-16T17:10:17;28;26;17
44871;PMS7003;30602;51.060;17.226;2022-10-16T17:14:23;26;22;17
44871;PMS7003;30602;51.060;17.226;2022-10-16T17:18:05;26;24;18
44871;PMS7003;30602;51.060;17.226;2022-10-16T17:21:39;29;28;18
44871;PMS7003;30602;51.060;17.226;2022-10-16T17:25:22;35;30;19
44871;PMS7003;30602;51.060;17.226;2022-10-16T17:28:58;28;24;20
44871;PMS7003;30602;51.060;17.226;2022-10-16T17:32:11;29;27;20
44871;PMS7003;30602;51.060;17.226;2022-10-16T17:35:24;32;31;23
44871;PMS7003;30602;51.060;17.226;2022-10-16T17:38:39;35;32;21
44871;PMS7003;30602;51.060;17.226;2022-10-16T17:42:32;30;26;19
44871;PMS7003;30602;51.060;17.226;2022-10-16T17:45:45;34;30;20
44871;PMS7003;30602;51.060;17.226;2022-10-16T17:49:14;32;28;19
44871;PMS7003;30602;51.060;17.226;2022-10-16T17:52:33;34;31;21
44871;PMS7003;30602;51.060;17.226;2022-10-16T17:55:43;37;30;21
44871;PMS7003;30602;51.060;17.226;2022-10-16T17:59:00;30;27;17
44871;PMS7003;30602;51.060;17.226;2022-10-16T18:02:34;35;29;19
44871;PMS7003;30602;51.060;17.226;2022-10-16T18:05:49;31;28;19
44871;PMS7003;30602;51.060;17.226;2022-10-16T18:09:24;33;30;21
44871;PMS7003;30602;51.060;17.226;2022-10-16T18:12:45;32;27;19
44871;PMS7003;30602;51.060;17.226;2022-10-16T18:15:59;31;29;19
44871;PMS7003;30602;51.060;17.226;2022-10-16T18:19:38;35;30;19
44871;PMS7003;30602;51.060;17.226;2022-10-16T18:23:12;35;32;20
44871;PMS7003;30602;51.060;17.226;2022-10-16T18:26:41;36;32;20
44871;PMS7003;30602;51.060;17.226;2022-10-16T18:30:53;35;32;22
44871;PMS7003;30602;51.060;17.226;2022-10-16T18:34:29;38;30;21
44871;PMS7003;30602;51.060;17.226;2022-10-16T18:38:06;35;31;21
44871;PMS7003;30602;51.060;17.226;2022-10-16T18:41:54;36;32;20
44871;PMS7003;30602;51.060;17.226;2022-10-16T18:45:08;32;27;19
44871;PMS7003;30602;51.060;17.226;2022-10-16T18:48:43;32;29;20
44871;PMS7003;30602;51.060;17.226;2022-10-16T18:52:25;43;33;20
44871;PMS7003;30602;51.060;17.226;2022-10-16T18:55:58;39;32;22
44871;PMS7003;30602;51.060;17.226;2022-10-16T19:00:07;36;31;21
44871;PMS7003;30602;51.060;17.226;2022-10-16T19:03:43;45;33;22
44871;PMS7003;30602;51.060;17.226;2022-10-16T19:06:57;38;32;21
44871;PMS7003;30602;51.060;17.226;2022-10-16T19:10:36;38;33;21
44871;PMS7003;30602;51.060;17.226;2022-10-16T19:13:59;44;33;23
44871;PMS7003;30602;51.060;17.226;2022-10-16T19:17:33;34;30;21
44871;PMS7003;30602;51.060;17.226;2022-10-16T19:20:55;37;32;21
44871;PMS7003;30602;51.060;17.226;2022-10-16T19:24:37;36;32;22
44871;PMS7003;30602;51.060;17.226;2022-10-16T19:27:53;36;33;22
44871;PMS7003;30602;51.060;17.226;2022-10-16T19:31:27;36;33;23
44871;PMS7003;30602;51.060;17.226;2022-10-16T19:34:41;34;28;20
44871;PMS7003;30602;51.060;17.226;2022-10-16T19:38:22;37;33;23
44871;PMS7003;30602;51.060;17.226;2022-10-16T19:42:05;41;35;24
44871;PMS7003;30602;51.060;17.226;2022-10-16T19:45:38;42;37;25
44871;PMS7003;30602;51.060;17.226;2022-10-16T19:49:36;41;34;23
44871;PMS7003;30602;51.060;17.226;2022-10-16T19:53:34;39;33;22
44871;PMS7003;30602;51.060;17.226;2022-10-16T19:57:26;39;33;22
44871;PMS7003;30602;51.060;17.226;2022-10-16T20:01:24;41;35;23
44871;PMS7003;30602;51.060;17.226;2022-10-16T20:04:42;37;33;23
44871;PMS7003;30602;51.060;17.226;2022-10-16T20:08:20;37;33;22
44871;PMS7003;30602;51.060;17.226;2022-10-16T20:11:32;40;36;24
44871;PMS7003;30602;51.060;17.226;2022-10-16T20:15:18;41;35;23
44871;PMS7003;30602;51.060;17.226;2022-10-16T20:18:25;42;36;24
44871;PMS7003;30602;51.060;17.226;2022-10-16T20:21:31;38;34;22
44871;PMS7003;30602;51.060;17.226;2022-10-16T20:24:55;37;33;22
44871;PMS7003;30602;51.060;17.226;2022-10-16T20:28:04;36;32;23
44871;PMS7003;30602;51.060;17.226;2022-10-16T20:31:31;45;37;24
44871;PMS7003;30602;51.060;17.226;2022-10-16T20:35:06;38;34;23
44871;PMS7003;30602;51.060;17.226;2022-10-16T20:38:37;39;34;22
44871;PMS7003;30602;51.060;17.226;2022-10-16T20:41:50;36;33;23
44871;PMS7003;30602;51.060;17.226;2022-10-16T20:46:02;41;36;24
44871;PMS7003;30602;51.060;17.226;2022-10-16T20:49:35;38;33;24
44871;PMS7003;30602;51.060;17.226;2022-10-16T20:53:05;40;35;23
44871;PMS7003;30602;51.060;17.226;2022-10-16T20:56:16;38;34;23
44871;PMS7003;30602;51.060;17.226;2022-10-16T20:59:27;40;36;25
44871;PMS7003;30602;51.060;17.226;2022-10-16T21:03:00;43;35;23
44871;PMS7003;30602;51.060;17.226;2022-10-16T21:06:12;37;35;24
44871;PMS7003;30602;51.060;17.226;2022-10-16T21:13:22;43;36;25
44871;PMS7003;30602;51.060;17.226;2022-10-16T21:16:54;34;32;23
44871;PMS7003;30602;51.060;17.226;2022-10-16T21:24:08;33;33;22
44871;PMS7003;30602;51.060;17.226;2022-10-16T21:27:38;43;37;22
44871;PMS7003;30602;51.060;17.226;2022-10-16T21:30:52;39;35;23
44871;PMS7003;30602;51.060;17.226;2022-10-16T21:34:01;39;34;24
44871;PMS7003;30602;51.060;17.226;2022-10-16T21:37:18;46;38;24
44871;PMS7003;30602;51.060;17.226;2022-10-16T21:44:38;46;37;23
44871;PMS7003;30602;51.060;17.226;2022-10-16T21:48:00;47;39;25
44871;PMS7003;30602;51.060;17.226;2022-10-16T21:51:49;49;40;25
44871;PMS7003;30602;51.060;17.226;2022-10-16T21:54:55;46;38;24
44871;PMS7003;30602;51.060;17.226;2022-10-16T21:58:43;52;41;26
44871;PMS7003;30602;51.060;17.226;2022-10-16T22:02:58;46;38;25
44871;PMS7003;30602;51.060;17.226;2022-10-16T22:06:26;49;40;25
44871;PMS7003;30602;51.060;17.226;2022-10-16T22:10:16;51;39;26
44871;PMS7003;30602;51.060;17.226;2022-10-16T22:13:34;53;44;26
44871;PMS7003;30602;51.060;17.226;2022-10-16T22:16:45;50;40;25
44871;PMS7003;30602;51.060;17.226;2022-10-16T22:20:21;56;42;26
44871;PMS7003;30602;51.060;17.226;2022-10-16T22:23:54;45;40;27
44871;PMS7003;30602;51.060;17.226;2022-10-16T22:27:50;50;41;24
44871;PMS7003;30602;51.060;17.226;2022-10-16T22:31:03;51;43;26
44871;PMS7003;30602;51.060;17.226;2022-10-16T22:34:19;47;38;25
44871;PMS7003;30602;51.060;17.226;2022-10-16T22:37:47;51;41;26
44871;PMS7003;30602;51.060;17.226;2022-10-16T22:41:44;48;40;25
44871;PMS7003;30602;51.060;17.226;2022-10-16T22:44:57;55;40;26
44871;PMS7003;30602;51.060;17.226;2022-10-16T22:48:25;55;43;26
44871;PMS7003;30602;51.060;17.226;2022-10-16T22:52:06;49;39;24
44871;PMS7003;30602;51.060;17.226;2022-10-16T22:55:47;49;41;27
44871;PMS7003;30602;51.060;17.226;2022-10-16T22:59:00;47;38;25
44871;PMS7003;30602;51.060;17.226;2022-10-16T23:02:37;51;41;26
44871;PMS7003;30602;51.060;17.226;2022-10-16T23:05:50;46;34;23
44871;PMS7003;30602;51.060;17.226;2022-10-16T23:09:22;48;41;27
44871;PMS7003;30602;51.060;17.226;2022-10-16T23:12:38;41;37;25
44871;PMS7003;30602;51.060;17.226;2022-10-16T23:16:31;42;38;26
44871;PMS7003;30602;51.060;17.226;2022-10-16T23:19:58;49;41;26
44871;PMS7003;30602;51.060;17.226;2022-10-16T23:23:49;54;43;26
44871;PMS7003;30602;51.060;17.226;2022-10-16T23:27:02;55;42;28
44871;PMS7003;30602;51.060;17.226;2022-10-16T23:30:34;55;44;26
44871;PMS7003;30602;51.060;17.226;2022-10-16T23:33:54;55;44;27
44871;PMS7003;30602;51.060;17.226;2022-10-16T23:37:09;53;43;27
44871;PMS7003;30602;51.060;17.226;2022-10-16T23:40:26;54;45;28
44871;PMS7003;30602;51.060;17.226;2022-10-16T23:43:39;54;44;28
44871;PMS7003;30602;51.060;17.226;2022-10-16T23:46:50;52;43;27
44871;PMS7003;30602;51.060;17.226;2022-10-16T23:50:35;50;41;27
44871;PMS7003;30602;51.060;17.226;2022-10-16T23:54:30;54;43;27
44871;PMS7003;30602;51.060;17.226;2022-10-16T23:57:45;59;49;29
